sensor_id;sensor_type;location;lat;lon;timestamp;P1;durP1;ratioP1;P2;durP2;ratioP2
54145;SDS011;65909;49.422;7.738;2023-06-10T00:01:43;9.18;;;7.10;;
54145;SDS011;65909;49.422;7.738;2023-06-10T00:04:13;8.07;;;7.25;;
54145;SDS011;65909;49.422;7.738;2023-06-10T00:06:39;7.82;;;6.82;;
54145;SDS011;65909;49.422;7.738;2023-06-10T00:09:05;12.95;;;7.35;;
54145;SDS011;65909;49.422;7.738;2023-06-10T00:11:35;9.13;;;7.57;;
54145;SDS011;65909;49.422;7.738;2023-06-10T00:14:01;10.80;;;7.90;;
54145;SDS011;65909;49.422;7.738;2023-06-10T00:16:26;13.02;;;7.72;;
54145;SDS011;65909;49.422;7.738;2023-06-10T00:18:52;9.23;;;7.90;;
54145;SDS011;65909;49.422;7.738;2023-06-10T00:21:17;10.30;;;7.60;;
54145;SDS011;65909;49.422;7.738;2023-06-10T00:23:44;11.77;;;8.20;;
54145;SDS011;65909;49.422;7.738;2023-06-10T00:26:09;12.60;;;8.23;;
54145;SDS011;65909;49.422;7.738;2023-06-10T00:28:35;8.98;;;8.07;;
54145;SDS011;65909;49.422;7.738;2023-06-10T00:31:00;9.43;;;8.27;;
54145;SDS011;65909;49.422;7.738;2023-06-10T00:33:26;9.30;;;7.75;;
54145;SDS011;65909;49.422;7.738;2023-06-10T00:35:51;11.38;;;8.45;;
54145;SDS011;65909;49.422;7.738;2023-06-10T00:38:17;9.50;;;7.60;;
54145;SDS011;65909;49.422;7.738;2023-06-10T00:40:42;9.48;;;7.72;;
54145;SDS011;65909;49.422;7.738;2023-06-10T00:43:08;9.80;;;8.80;;
54145;SDS011;65909;49.422;7.738;2023-06-10T00:45:33;11.23;;;8.23;;
54145;SDS011;65909;49.422;7.738;2023-06-10T00:47:59;9.88;;;7.78;;
54145;SDS011;65909;49.422;7.738;2023-06-10T00:50:25;8.85;;;7.90;;
54145;SDS011;65909;49.422;7.738;2023-06-10T00:52:51;11.13;;;8.25;;
54145;SDS011;65909;49.422;7.738;2023-06-10T00:55:18;9.07;;;8.18;;
54145;SDS011;65909;49.422;7.738;2023-06-10T00:57:44;11.02;;;7.72;;
54145;SDS011;65909;49.422;7.738;2023-06-10T01:00:11;9.68;;;8.57;;
54145;SDS011;65909;49.422;7.738;2023-06-10T01:02:37;10.10;;;7.97;;
54145;SDS011;65909;49.422;7.738;2023-06-10T01:05:03;11.27;;;8.77;;
54145;SDS011;65909;49.422;7.738;2023-06-10T01:08:14;9.07;;;8.25;;
54145;SDS011;65909;49.422;7.738;2023-06-10T01:10:29;10.82;;;8.77;;
54145;SDS011;65909;49.422;7.738;2023-06-10T01:13:05;13.45;;;9.38;;
54145;SDS011;65909;49.422;7.738;2023-06-10T01:15:33;10.55;;;9.15;;
54145;SDS011;65909;49.422;7.738;2023-06-10T01:18:00;11.02;;;8.90;;
54145;SDS011;65909;49.422;7.738;2023-06-10T01:20:28;11.07;;;8.30;;
54145;SDS011;65909;49.422;7.738;2023-06-10T01:22:57;11.25;;;8.55;;
54145;SDS011;65909;49.422;7.738;2023-06-10T01:25:24;10.07;;;9.07;;
54145;SDS011;65909;49.422;7.738;2023-06-10T01:28:17;10.77;;;8.43;;
54145;SDS011;65909;49.422;7.738;2023-06-10T01:33:37;9.68;;;8.63;;
54145;SDS011;65909;49.422;7.738;2023-06-10T01:36:10;10.55;;;8.40;;
54145;SDS011;65909;49.422;7.738;2023-06-10T01:38:39;10.90;;;8.80;;
54145;SDS011;65909;49.422;7.738;2023-06-10T01:41:07;9.45;;;7.93;;
54145;SDS011;65909;49.422;7.738;2023-06-10T01:43:34;11.05;;;9.13;;
54145;SDS011;65909;49.422;7.738;2023-06-10T01:46:02;10.20;;;8.63;;
54145;SDS011;65909;49.422;7.738;2023-06-10T01:48:27;10.98;;;8.50;;
54145;SDS011;65909;49.422;7.738;2023-06-10T01:50:53;11.00;;;8.13;;
54145;SDS011;65909;49.422;7.738;2023-06-10T01:53:20;9.77;;;8.35;;
54145;SDS011;65909;49.422;7.738;2023-06-10T01:55:46;12.90;;;8.82;;
54145;SDS011;65909;49.422;7.738;2023-06-10T01:58:11;11.93;;;8.65;;
54145;SDS011;65909;49.422;7.738;2023-06-10T02:00:37;11.93;;;8.57;;
54145;SDS011;65909;49.422;7.738;2023-06-10T02:03:02;11.30;;;8.00;;
54145;SDS011;65909;49.422;7.738;2023-06-10T02:05:27;10.68;;;8.45;;
54145;SDS011;65909;49.422;7.738;2023-06-10T02:07:53;12.60;;;8.50;;
54145;SDS011;65909;49.422;7.738;2023-06-10T02:10:18;12.02;;;8.20;;
54145;SDS011;65909;49.422;7.738;2023-06-10T02:12:44;10.20;;;8.23;;
54145;SDS011;65909;49.422;7.738;2023-06-10T02:15:09;11.63;;;8.85;;
54145;SDS011;65909;49.422;7.738;2023-06-10T02:17:34;10.90;;;8.65;;
54145;SDS011;65909;49.422;7.738;2023-06-10T02:20:00;10.60;;;7.97;;
54145;SDS011;65909;49.422;7.738;2023-06-10T02:22:31;10.98;;;8.57;;
54145;SDS011;65909;49.422;7.738;2023-06-10T02:24:56;10.80;;;8.27;;
54145;SDS011;65909;49.422;7.738;2023-06-10T02:27:22;11.60;;;8.90;;
54145;SDS011;65909;49.422;7.738;2023-06-10T02:29:47;11.13;;;8.45;;
54145;SDS011;65909;49.422;7.738;2023-06-10T02:32:12;10.32;;;8.73;;
54145;SDS011;65909;49.422;7.738;2023-06-10T02:34:38;10.55;;;9.00;;
54145;SDS011;65909;49.422;7.738;2023-06-10T02:37:03;9.95;;;8.32;;
54145;SDS011;65909;49.422;7.738;2023-06-10T02:39:29;12.90;;;9.57;;
54145;SDS011;65909;49.422;7.738;2023-06-10T02:41:54;12.23;;;8.75;;
54145;SDS011;65909;49.422;7.738;2023-06-10T02:44:19;11.13;;;9.13;;
54145;SDS011;65909;49.422;7.738;2023-06-10T02:46:45;11.88;;;8.20;;
54145;SDS011;65909;49.422;7.738;2023-06-10T02:49:11;11.52;;;8.60;;
54145;SDS011;65909;49.422;7.738;2023-06-10T02:51:36;10.88;;;8.75;;
54145;SDS011;65909;49.422;7.738;2023-06-10T02:54:02;11.35;;;8.45;;
54145;SDS011;65909;49.422;7.738;2023-06-10T02:56:27;13.05;;;9.07;;
54145;SDS011;65909;49.422;7.738;2023-06-10T02:58:53;9.98;;;8.25;;
54145;SDS011;65909;49.422;7.738;2023-06-10T03:01:18;9.38;;;8.25;;
54145;SDS011;65909;49.422;7.738;2023-06-10T03:03:44;10.00;;;8.02;;
54145;SDS011;65909;49.422;7.738;2023-06-10T03:06:11;10.60;;;8.20;;
54145;SDS011;65909;49.422;7.738;2023-06-10T03:08:37;11.05;;;9.00;;
54145;SDS011;65909;49.422;7.738;2023-06-10T03:11:03;10.57;;;8.82;;
54145;SDS011;65909;49.422;7.738;2023-06-10T03:13:28;10.30;;;7.95;;
54145;SDS011;65909;49.422;7.738;2023-06-10T03:15:54;12.30;;;8.82;;
54145;SDS011;65909;49.422;7.738;2023-06-10T03:18:19;11.15;;;7.90;;
54145;SDS011;65909;49.422;7.738;2023-06-10T03:20:45;11.27;;;8.85;;
54145;SDS011;65909;49.422;7.738;2023-06-10T03:23:10;9.63;;;8.32;;
54145;SDS011;65909;49.422;7.738;2023-06-10T03:25:36;9.60;;;8.68;;
54145;SDS011;65909;49.422;7.738;2023-06-10T03:28:02;12.52;;;8.38;;
54145;SDS011;65909;49.422;7.738;2023-06-10T03:30:27;10.40;;;7.93;;
54145;SDS011;65909;49.422;7.738;2023-06-10T03:32:53;9.48;;;8.15;;
54145;SDS011;65909;49.422;7.738;2023-06-10T03:35:18;12.57;;;8.68;;
54145;SDS011;65909;49.422;7.738;2023-06-10T03:37:44;9.85;;;7.40;;
54145;SDS011;65909;49.422;7.738;2023-06-10T03:40:09;11.68;;;7.80;;
54145;SDS011;65909;49.422;7.738;2023-06-10T03:42:35;10.88;;;7.88;;
54145;SDS011;65909;49.422;7.738;2023-06-10T03:45:00;10.13;;;7.63;;
54145;SDS011;65909;49.422;7.738;2023-06-10T03:47:26;9.65;;;8.55;;
54145;SDS011;65909;49.422;7.738;2023-06-10T03:49:58;11.75;;;7.72;;
54145;SDS011;65909;49.422;7.738;2023-06-10T03:52:23;9.68;;;7.28;;
54145;SDS011;65909;49.422;7.738;2023-06-10T03:54:48;9.82;;;8.10;;
54145;SDS011;65909;49.422;7.738;2023-06-10T03:57:14;10.93;;;7.97;;
54145;SDS011;65909;49.422;7.738;2023-06-10T03:59:39;10.27;;;8.25;;
54145;SDS011;65909;49.422;7.738;2023-06-10T04:02:05;8.93;;;7.35;;
54145;SDS011;65909;49.422;7.738;2023-06-10T04:04:31;8.27;;;7.38;;
54145;SDS011;65909;49.422;7.738;2023-06-10T04:06:57;9.82;;;7.70;;
54145;SDS011;65909;49.422;7.738;2023-06-10T04:09:22;9.20;;;7.60;;
54145;SDS011;65909;49.422;7.738;2023-06-10T04:11:48;8.68;;;7.38;;
54145;SDS011;65909;49.422;7.738;2023-06-10T04:14:13;9.13;;;7.53;;
54145;SDS011;65909;49.422;7.738;2023-06-10T04:16:38;8.32;;;6.95;;
54145;SDS011;65909;49.422;7.738;2023-06-10T04:19:04;11.63;;;7.60;;
54145;SDS011;65909;49.422;7.738;2023-06-10T04:21:29;10.02;;;7.75;;
54145;SDS011;65909;49.422;7.738;2023-06-10T04:23:55;9.63;;;6.78;;
54145;SDS011;65909;49.422;7.738;2023-06-10T04:26:20;9.00;;;7.13;;
54145;SDS011;65909;49.422;7.738;2023-06-10T04:28:46;7.55;;;6.78;;
54145;SDS011;65909;49.422;7.738;2023-06-10T04:31:12;9.77;;;6.97;;
54145;SDS011;65909;49.422;7.738;2023-06-10T04:33:37;8.68;;;7.10;;
54145;SDS011;65909;49.422;7.738;2023-06-10T04:36:02;10.38;;;7.00;;
54145;SDS011;65909;49.422;7.738;2023-06-10T04:38:28;8.43;;;6.63;;
54145;SDS011;65909;49.422;7.738;2023-06-10T04:40:55;9.43;;;6.53;;
54145;SDS011;65909;49.422;7.738;2023-06-10T04:43:20;8.75;;;6.72;;
54145;SDS011;65909;49.422;7.738;2023-06-10T04:45:46;7.90;;;6.40;;
54145;SDS011;65909;49.422;7.738;2023-06-10T04:48:12;9.27;;;6.82;;
54145;SDS011;65909;49.422;7.738;2023-06-10T04:50:38;9.27;;;7.15;;
54145;SDS011;65909;49.422;7.738;2023-06-10T04:53:03;7.75;;;6.80;;
54145;SDS011;65909;49.422;7.738;2023-06-10T04:55:29;9.27;;;6.80;;
54145;SDS011;65909;49.422;7.738;2023-06-10T04:57:54;14.88;;;6.85;;
54145;SDS011;65909;49.422;7.738;2023-06-10T05:00:20;9.45;;;6.65;;
54145;SDS011;65909;49.422;7.738;2023-06-10T05:02:45;7.85;;;6.30;;
54145;SDS011;65909;49.422;7.738;2023-06-10T05:05:14;7.43;;;6.00;;
54145;SDS011;65909;49.422;7.738;2023-06-10T05:07:41;9.35;;;6.38;;
54145;SDS011;65909;49.422;7.738;2023-06-10T05:10:07;7.75;;;6.15;;
54145;SDS011;65909;49.422;7.738;2023-06-10T05:12:32;9.77;;;6.32;;
54145;SDS011;65909;49.422;7.738;2023-06-10T05:14:58;8.75;;;6.18;;
54145;SDS011;65909;49.422;7.738;2023-06-10T05:17:23;11.93;;;7.00;;
54145;SDS011;65909;49.422;7.738;2023-06-10T05:19:50;9.45;;;6.60;;
54145;SDS011;65909;49.422;7.738;2023-06-10T05:22:15;7.95;;;6.70;;
54145;SDS011;65909;49.422;7.738;2023-06-10T05:24:43;10.05;;;6.55;;
54145;SDS011;65909;49.422;7.738;2023-06-10T05:27:09;9.05;;;6.28;;
54145;SDS011;65909;49.422;7.738;2023-06-10T05:29:34;8.50;;;6.22;;
54145;SDS011;65909;49.422;7.738;2023-06-10T05:32:00;8.80;;;6.72;;
54145;SDS011;65909;49.422;7.738;2023-06-10T05:34:28;9.48;;;6.60;;
54145;SDS011;65909;49.422;7.738;2023-06-10T05:36:54;8.75;;;7.07;;
54145;SDS011;65909;49.422;7.738;2023-06-10T05:39:19;7.55;;;6.72;;
54145;SDS011;65909;49.422;7.738;2023-06-10T05:41:45;11.25;;;6.43;;
54145;SDS011;65909;49.422;7.738;2023-06-10T05:44:11;7.22;;;5.82;;
54145;SDS011;65909;49.422;7.738;2023-06-10T05:46:36;7.22;;;6.28;;
54145;SDS011;65909;49.422;7.738;2023-06-10T05:49:02;9.13;;;6.40;;
54145;SDS011;65909;49.422;7.738;2023-06-10T05:51:27;8.57;;;6.57;;
54145;SDS011;65909;49.422;7.738;2023-06-10T05:53:53;8.43;;;6.45;;
54145;SDS011;65909;49.422;7.738;2023-06-10T05:56:19;9.18;;;6.22;;
54145;SDS011;65909;49.422;7.738;2023-06-10T05:58:46;8.57;;;6.82;;
54145;SDS011;65909;49.422;7.738;2023-06-10T06:01:11;8.40;;;7.05;;
54145;SDS011;65909;49.422;7.738;2023-06-10T06:03:37;9.65;;;6.70;;
54145;SDS011;65909;49.422;7.738;2023-06-10T06:06:02;8.30;;;6.22;;
54145;SDS011;65909;49.422;7.738;2023-06-10T06:08:28;7.85;;;6.45;;
54145;SDS011;65909;49.422;7.738;2023-06-10T06:10:54;9.18;;;6.05;;
54145;SDS011;65909;49.422;7.738;2023-06-10T06:13:19;6.88;;;5.85;;
54145;SDS011;65909;49.422;7.738;2023-06-10T06:15:45;9.20;;;6.47;;
54145;SDS011;65909;49.422;7.738;2023-06-10T06:18:10;7.03;;;6.05;;
54145;SDS011;65909;49.422;7.738;2023-06-10T06:20:35;8.15;;;6.18;;
54145;SDS011;65909;49.422;7.738;2023-06-10T06:23:01;9.63;;;6.25;;
54145;SDS011;65909;49.422;7.738;2023-06-10T06:25:26;8.13;;;5.88;;
54145;SDS011;65909;49.422;7.738;2023-06-10T06:27:52;11.75;;;6.20;;
54145;SDS011;65909;49.422;7.738;2023-06-10T06:30:17;8.77;;;6.03;;
54145;SDS011;65909;49.422;7.738;2023-06-10T06:32:42;7.03;;;5.68;;
54145;SDS011;65909;49.422;7.738;2023-06-10T06:35:08;8.18;;;5.78;;
54145;SDS011;65909;49.422;7.738;2023-06-10T06:37:33;8.68;;;5.82;;
54145;SDS011;65909;49.422;7.738;2023-06-10T06:40:00;8.18;;;5.10;;
54145;SDS011;65909;49.422;7.738;2023-06-10T06:42:25;6.68;;;5.35;;
54145;SDS011;65909;49.422;7.738;2023-06-10T06:44:50;8.05;;;5.85;;
54145;SDS011;65909;49.422;7.738;2023-06-10T06:47:16;7.72;;;4.88;;
54145;SDS011;65909;49.422;7.738;2023-06-10T06:49:47;6.43;;;5.18;;
54145;SDS011;65909;49.422;7.738;2023-06-10T06:52:15;5.90;;;4.90;;
54145;SDS011;65909;49.422;7.738;2023-06-10T06:54:40;5.32;;;4.75;;
54145;SDS011;65909;49.422;7.738;2023-06-10T06:57:06;5.25;;;4.70;;
54145;SDS011;65909;49.422;7.738;2023-06-10T06:59:32;5.47;;;4.50;;
54145;SDS011;65909;49.422;7.738;2023-06-10T07:01:57;9.23;;;4.38;;
54145;SDS011;65909;49.422;7.738;2023-06-10T07:04:23;5.60;;;4.93;;
54145;SDS011;65909;49.422;7.738;2023-06-10T07:06:48;6.22;;;4.47;;
54145;SDS011;65909;49.422;7.738;2023-06-10T07:09:14;5.10;;;4.45;;
54145;SDS011;65909;49.422;7.738;2023-06-10T07:11:39;5.32;;;4.22;;
54145;SDS011;65909;49.422;7.738;2023-06-10T07:14:05;7.15;;;4.70;;
54145;SDS011;65909;49.422;7.738;2023-06-10T07:16:30;7.30;;;4.90;;
54145;SDS011;65909;49.422;7.738;2023-06-10T07:18:55;6.20;;;4.90;;
54145;SDS011;65909;49.422;7.738;2023-06-10T07:21:21;5.57;;;5.03;;
54145;SDS011;65909;49.422;7.738;2023-06-10T07:23:48;4.50;;;4.07;;
54145;SDS011;65909;49.422;7.738;2023-06-10T07:26:14;7.25;;;4.90;;
54145;SDS011;65909;49.422;7.738;2023-06-10T07:28:40;5.97;;;4.60;;
54145;SDS011;65909;49.422;7.738;2023-06-10T07:31:06;7.00;;;4.40;;
54145;SDS011;65909;49.422;7.738;2023-06-10T07:33:32;6.53;;;4.97;;
54145;SDS011;65909;49.422;7.738;2023-06-10T07:35:57;6.68;;;4.50;;
54145;SDS011;65909;49.422;7.738;2023-06-10T07:38:24;5.65;;;4.22;;
54145;SDS011;65909;49.422;7.738;2023-06-10T07:40:50;7.50;;;4.50;;
54145;SDS011;65909;49.422;7.738;2023-06-10T07:43:15;4.15;;;3.72;;
54145;SDS011;65909;49.422;7.738;2023-06-10T07:45:41;8.73;;;4.53;;
54145;SDS011;65909;49.422;7.738;2023-06-10T07:48:06;5.75;;;4.22;;
54145;SDS011;65909;49.422;7.738;2023-06-10T07:50:32;5.97;;;4.00;;
54145;SDS011;65909;49.422;7.738;2023-06-10T07:52:58;5.00;;;3.75;;
54145;SDS011;65909;49.422;7.738;2023-06-10T07:55:23;4.30;;;3.85;;
54145;SDS011;65909;49.422;7.738;2023-06-10T07:57:50;4.57;;;4.18;;
54145;SDS011;65909;49.422;7.738;2023-06-10T08:00:16;6.20;;;4.60;;
54145;SDS011;65909;49.422;7.738;2023-06-10T08:02:42;5.75;;;4.00;;
54145;SDS011;65909;49.422;7.738;2023-06-10T08:05:07;4.90;;;3.90;;
54145;SDS011;65909;49.422;7.738;2023-06-10T08:07:33;4.50;;;3.97;;
54145;SDS011;65909;49.422;7.738;2023-06-10T08:09:58;4.45;;;3.85;;
54145;SDS011;65909;49.422;7.738;2023-06-10T08:12:23;4.03;;;3.60;;
54145;SDS011;65909;49.422;7.738;2023-06-10T08:14:49;4.45;;;4.05;;
54145;SDS011;65909;49.422;7.738;2023-06-10T08:17:14;4.90;;;3.80;;
54145;SDS011;65909;49.422;7.738;2023-06-10T08:19:40;4.45;;;4.05;;
54145;SDS011;65909;49.422;7.738;2023-06-10T08:22:05;7.18;;;4.10;;
54145;SDS011;65909;49.422;7.738;2023-06-10T08:24:31;4.30;;;3.85;;
54145;SDS011;65909;49.422;7.738;2023-06-10T08:26:56;4.65;;;3.90;;
54145;SDS011;65909;49.422;7.738;2023-06-10T08:29:22;6.95;;;4.25;;
54145;SDS011;65909;49.422;7.738;2023-06-10T08:31:48;6.10;;;3.70;;
54145;SDS011;65909;49.422;7.738;2023-06-10T08:34:14;5.93;;;3.92;;
54145;SDS011;65909;49.422;7.738;2023-06-10T08:36:40;4.72;;;4.25;;
54145;SDS011;65909;49.422;7.738;2023-06-10T08:39:05;6.88;;;3.78;;
54145;SDS011;65909;49.422;7.738;2023-06-10T08:41:30;3.60;;;3.30;;
54145;SDS011;65909;49.422;7.738;2023-06-10T08:44:04;4.50;;;3.63;;
54145;SDS011;65909;49.422;7.738;2023-06-10T08:46:31;3.88;;;3.35;;
54145;SDS011;65909;49.422;7.738;2023-06-10T08:48:58;3.85;;;3.53;;
54145;SDS011;65909;49.422;7.738;2023-06-10T08:51:29;6.00;;;3.72;;
54145;SDS011;65909;49.422;7.738;2023-06-10T08:54:01;5.53;;;3.53;;
54145;SDS011;65909;49.422;7.738;2023-06-10T08:58:55;8.98;;;3.80;;
54145;SDS011;65909;49.422;7.738;2023-06-10T09:01:23;7.25;;;3.75;;
54145;SDS011;65909;49.422;7.738;2023-06-10T09:03:50;5.70;;;3.15;;
54145;SDS011;65909;49.422;7.738;2023-06-10T09:06:15;6.07;;;3.60;;
54145;SDS011;65909;49.422;7.738;2023-06-10T09:08:41;4.78;;;3.40;;
54145;SDS011;65909;49.422;7.738;2023-06-10T09:11:07;4.93;;;3.30;;
54145;SDS011;65909;49.422;7.738;2023-06-10T09:13:33;6.68;;;3.80;;
54145;SDS011;65909;49.422;7.738;2023-06-10T09:15:58;4.65;;;3.38;;
54145;SDS011;65909;49.422;7.738;2023-06-10T09:18:26;3.40;;;3.10;;
54145;SDS011;65909;49.422;7.738;2023-06-10T09:20:52;4.72;;;3.30;;
54145;SDS011;65909;49.422;7.738;2023-06-10T09:23:18;4.15;;;3.30;;
54145;SDS011;65909;49.422;7.738;2023-06-10T09:25:43;4.65;;;3.22;;
54145;SDS011;65909;49.422;7.738;2023-06-10T09:28:12;3.90;;;3.38;;
54145;SDS011;65909;49.422;7.738;2023-06-10T09:30:40;4.55;;;3.53;;
54145;SDS011;65909;49.422;7.738;2023-06-10T09:33:12;5.05;;;3.50;;
54145;SDS011;65909;49.422;7.738;2023-06-10T09:35:47;3.90;;;3.50;;
54145;SDS011;65909;49.422;7.738;2023-06-10T09:38:14;5.43;;;3.65;;
54145;SDS011;65909;49.422;7.738;2023-06-10T09:40:54;5.72;;;3.80;;
54145;SDS011;65909;49.422;7.738;2023-06-10T09:43:20;4.10;;;3.60;;
54145;SDS011;65909;49.422;7.738;2023-06-10T09:45:51;6.05;;;4.13;;
54145;SDS011;65909;49.422;7.738;2023-06-10T09:48:22;3.92;;;3.47;;
54145;SDS011;65909;49.422;7.738;2023-06-10T09:50:48;6.22;;;3.40;;
54145;SDS011;65909;49.422;7.738;2023-06-10T09:53:14;3.70;;;3.20;;
54145;SDS011;65909;49.422;7.738;2023-06-10T09:55:39;5.20;;;3.63;;
54145;SDS011;65909;49.422;7.738;2023-06-10T09:58:06;5.07;;;3.70;;
54145;SDS011;65909;49.422;7.738;2023-06-10T10:00:32;3.85;;;3.45;;
54145;SDS011;65909;49.422;7.738;2023-06-10T10:02:58;4.85;;;3.78;;
54145;SDS011;65909;49.422;7.738;2023-06-10T10:05:24;3.63;;;3.33;;
54145;SDS011;65909;49.422;7.738;2023-06-10T10:07:50;7.18;;;3.80;;
54145;SDS011;65909;49.422;7.738;2023-06-10T10:10:17;7.38;;;3.50;;
54145;SDS011;65909;49.422;7.738;2023-06-10T10:12:45;4.78;;;3.80;;
54145;SDS011;65909;49.422;7.738;2023-06-10T10:15:13;4.20;;;3.80;;
54145;SDS011;65909;49.422;7.738;2023-06-10T10:20:26;3.90;;;3.53;;
54145;SDS011;65909;49.422;7.738;2023-06-10T10:22:55;4.72;;;4.07;;
54145;SDS011;65909;49.422;7.738;2023-06-10T10:25:28;4.65;;;3.58;;
54145;SDS011;65909;49.422;7.738;2023-06-10T10:30:37;4.65;;;3.22;;
54145;SDS011;65909;49.422;7.738;2023-06-10T10:35:58;3.88;;;3.22;;
54145;SDS011;65909;49.422;7.738;2023-06-10T10:38:25;3.60;;;3.30;;
54145;SDS011;65909;49.422;7.738;2023-06-10T10:40:52;4.80;;;3.50;;
54145;SDS011;65909;49.422;7.738;2023-06-10T10:43:20;4.45;;;3.80;;
54145;SDS011;65909;49.422;7.738;2023-06-10T10:45:46;3.85;;;3.42;;
54145;SDS011;65909;49.422;7.738;2023-06-10T10:48:26;3.53;;;3.22;;
54145;SDS011;65909;49.422;7.738;2023-06-10T10:50:57;5.45;;;3.75;;
54145;SDS011;65909;49.422;7.738;2023-06-10T10:53:23;5.28;;;3.78;;
54145;SDS011;65909;49.422;7.738;2023-06-10T10:56:00;5.50;;;3.20;;
54145;SDS011;65909;49.422;7.738;2023-06-10T10:58:29;3.92;;;3.35;;
54145;SDS011;65909;49.422;7.738;2023-06-10T11:00:55;4.35;;;3.28;;
54145;SDS011;65909;49.422;7.738;2023-06-10T11:03:20;5.80;;;3.28;;
54145;SDS011;65909;49.422;7.738;2023-06-10T11:05:46;3.25;;;2.95;;
54145;SDS011;65909;49.422;7.738;2023-06-10T11:08:13;3.97;;;3.10;;
54145;SDS011;65909;49.422;7.738;2023-06-10T11:10:41;4.80;;;3.40;;
54145;SDS011;65909;49.422;7.738;2023-06-10T11:13:15;4.72;;;3.25;;
54145;SDS011;65909;49.422;7.738;2023-06-10T11:15:45;5.55;;;2.92;;
54145;SDS011;65909;49.422;7.738;2023-06-10T11:18:25;3.80;;;3.15;;
54145;SDS011;65909;49.422;7.738;2023-06-10T11:20:59;4.50;;;3.15;;
54145;SDS011;65909;49.422;7.738;2023-06-10T11:31:23;7.23;;;3.40;;
54145;SDS011;65909;49.422;7.738;2023-06-10T11:33:52;4.38;;;3.40;;
54145;SDS011;65909;49.422;7.738;2023-06-10T11:36:22;4.35;;;3.05;;
54145;SDS011;65909;49.422;7.738;2023-06-10T11:38:49;3.65;;;3.20;;
54145;SDS011;65909;49.422;7.738;2023-06-10T11:41:17;5.20;;;3.70;;
54145;SDS011;65909;49.422;7.738;2023-06-10T11:43:43;6.10;;;3.58;;
54145;SDS011;65909;49.422;7.738;2023-06-10T11:46:09;4.63;;;3.92;;
54145;SDS011;65909;49.422;7.738;2023-06-10T11:48:35;6.10;;;4.22;;
54145;SDS011;65909;49.422;7.738;2023-06-10T11:51:00;4.95;;;3.55;;
54145;SDS011;65909;49.422;7.738;2023-06-10T11:53:31;5.97;;;3.85;;
54145;SDS011;65909;49.422;7.738;2023-06-10T11:55:56;4.40;;;3.80;;
54145;SDS011;65909;49.422;7.738;2023-06-10T11:58:22;6.10;;;3.83;;
54145;SDS011;65909;49.422;7.738;2023-06-10T12:03:13;4.68;;;3.83;;
54145;SDS011;65909;49.422;7.738;2023-06-10T12:05:38;4.63;;;3.83;;
54145;SDS011;65909;49.422;7.738;2023-06-10T12:08:10;6.35;;;3.97;;
54145;SDS011;65909;49.422;7.738;2023-06-10T12:10:42;4.93;;;4.03;;
54145;SDS011;65909;49.422;7.738;2023-06-10T12:13:08;4.85;;;4.10;;
54145;SDS011;65909;49.422;7.738;2023-06-10T12:15:34;4.53;;;3.83;;
54145;SDS011;65909;49.422;7.738;2023-06-10T12:18:00;5.03;;;4.00;;
54145;SDS011;65909;49.422;7.738;2023-06-10T12:20:30;4.75;;;3.72;;
54145;SDS011;65909;49.422;7.738;2023-06-10T12:22:59;5.22;;;3.90;;
54145;SDS011;65909;49.422;7.738;2023-06-10T12:25:33;4.30;;;3.90;;
54145;SDS011;65909;49.422;7.738;2023-06-10T12:27:58;6.68;;;3.63;;
54145;SDS011;65909;49.422;7.738;2023-06-10T12:30:24;5.68;;;3.97;;
54145;SDS011;65909;49.422;7.738;2023-06-10T12:32:51;3.80;;;3.50;;
54145;SDS011;65909;49.422;7.738;2023-06-10T12:35:18;4.40;;;3.75;;
54145;SDS011;65909;49.422;7.738;2023-06-10T12:37:56;4.75;;;3.88;;
54145;SDS011;65909;49.422;7.738;2023-06-10T12:40:30;7.07;;;3.60;;
54145;SDS011;65909;49.422;7.738;2023-06-10T12:43:00;5.82;;;4.00;;
54145;SDS011;65909;49.422;7.738;2023-06-10T12:45:29;4.57;;;3.60;;
54145;SDS011;65909;49.422;7.738;2023-06-10T12:48:11;6.82;;;3.90;;
54145;SDS011;65909;49.422;7.738;2023-06-10T12:50:44;7.53;;;4.30;;
54145;SDS011;65909;49.422;7.738;2023-06-10T12:53:12;20.55;;;6.38;;
54145;SDS011;65909;49.422;7.738;2023-06-10T12:55:37;21.58;;;6.00;;
54145;SDS011;65909;49.422;7.738;2023-06-10T12:58:03;33.17;;;7.25;;
54145;SDS011;65909;49.422;7.738;2023-06-10T13:00:29;6.93;;;4.38;;
54145;SDS011;65909;49.422;7.738;2023-06-10T13:03:00;4.82;;;4.07;;
54145;SDS011;65909;49.422;7.738;2023-06-10T13:05:27;4.35;;;3.80;;
54145;SDS011;65909;49.422;7.738;2023-06-10T13:07:53;4.57;;;3.42;;
54145;SDS011;65909;49.422;7.738;2023-06-10T13:10:20;18.58;;;5.18;;
54145;SDS011;65909;49.422;7.738;2023-06-10T13:12:46;5.68;;;4.10;;
54145;SDS011;65909;49.422;7.738;2023-06-10T13:15:11;8.57;;;4.38;;
54145;SDS011;65909;49.422;7.738;2023-06-10T13:17:37;15.55;;;5.28;;
54145;SDS011;65909;49.422;7.738;2023-06-10T13:20:04;12.50;;;5.03;;
54145;SDS011;65909;49.422;7.738;2023-06-10T13:22:30;7.20;;;3.58;;
54145;SDS011;65909;49.422;7.738;2023-06-10T13:24:57;4.38;;;3.63;;
54145;SDS011;65909;49.422;7.738;2023-06-10T13:27:26;3.78;;;3.38;;
54145;SDS011;65909;49.422;7.738;2023-06-10T13:29:52;6.22;;;3.90;;
54145;SDS011;65909;49.422;7.738;2023-06-10T13:32:17;3.92;;;3.53;;
54145;SDS011;65909;49.422;7.738;2023-06-10T13:34:43;5.10;;;3.28;;
54145;SDS011;65909;49.422;7.738;2023-06-10T13:37:08;4.22;;;3.20;;
54145;SDS011;65909;49.422;7.738;2023-06-10T13:39:33;3.40;;;3.10;;
54145;SDS011;65909;49.422;7.738;2023-06-10T13:41:59;3.58;;;3.28;;
54145;SDS011;65909;49.422;7.738;2023-06-10T13:44:24;4.68;;;3.72;;
54145;SDS011;65909;49.422;7.738;2023-06-10T13:46:50;3.80;;;3.25;;
54145;SDS011;65909;49.422;7.738;2023-06-10T13:49:15;4.82;;;3.55;;
54145;SDS011;65909;49.422;7.738;2023-06-10T13:51:40;3.80;;;3.10;;
54145;SDS011;65909;49.422;7.738;2023-06-10T13:54:06;4.00;;;3.50;;
54145;SDS011;65909;49.422;7.738;2023-06-10T13:56:31;4.43;;;3.50;;
54145;SDS011;65909;49.422;7.738;2023-06-10T13:58:58;3.95;;;3.33;;
54145;SDS011;65909;49.422;7.738;2023-06-10T14:01:24;3.95;;;3.15;;
54145;SDS011;65909;49.422;7.738;2023-06-10T14:03:50;5.68;;;3.53;;
54145;SDS011;65909;49.422;7.738;2023-06-10T14:06:15;3.65;;;3.05;;
54145;SDS011;65909;49.422;7.738;2023-06-10T14:08:43;3.65;;;3.13;;
54145;SDS011;65909;49.422;7.738;2023-06-10T14:11:09;3.78;;;3.22;;
54145;SDS011;65909;49.422;7.738;2023-06-10T14:13:34;3.55;;;3.15;;
54145;SDS011;65909;49.422;7.738;2023-06-10T14:16:03;7.13;;;3.40;;
54145;SDS011;65909;49.422;7.738;2023-06-10T14:18:28;4.28;;;2.78;;
54145;SDS011;65909;49.422;7.738;2023-06-10T14:20:54;4.18;;;3.30;;
54145;SDS011;65909;49.422;7.738;2023-06-10T14:23:19;6.57;;;3.35;;
54145;SDS011;65909;49.422;7.738;2023-06-10T14:25:44;4.63;;;3.08;;
54145;SDS011;65909;49.422;7.738;2023-06-10T14:28:10;3.88;;;3.42;;
54145;SDS011;65909;49.422;7.738;2023-06-10T14:30:35;3.88;;;3.47;;
54145;SDS011;65909;49.422;7.738;2023-06-10T14:33:00;4.18;;;3.03;;
54145;SDS011;65909;49.422;7.738;2023-06-10T14:35:26;4.93;;;3.05;;
54145;SDS011;65909;49.422;7.738;2023-06-10T14:37:51;6.30;;;3.42;;
54145;SDS011;65909;49.422;7.738;2023-06-10T14:40:16;4.65;;;3.35;;
54145;SDS011;65909;49.422;7.738;2023-06-10T14:42:42;4.82;;;3.03;;
54145;SDS011;65909;49.422;7.738;2023-06-10T14:45:07;5.38;;;3.53;;
54145;SDS011;65909;49.422;7.738;2023-06-10T14:47:34;3.75;;;3.35;;
54145;SDS011;65909;49.422;7.738;2023-06-10T14:50:00;4.22;;;3.33;;
54145;SDS011;65909;49.422;7.738;2023-06-10T14:52:25;3.75;;;3.35;;
54145;SDS011;65909;49.422;7.738;2023-06-10T14:54:51;3.83;;;3.08;;
54145;SDS011;65909;49.422;7.738;2023-06-10T14:57:16;3.95;;;3.20;;
54145;SDS011;65909;49.422;7.738;2023-06-10T14:59:42;3.60;;;3.25;;
54145;SDS011;65909;49.422;7.738;2023-06-10T15:02:07;4.40;;;3.20;;
54145;SDS011;65909;49.422;7.738;2023-06-10T15:04:32;3.20;;;2.90;;
54145;SDS011;65909;49.422;7.738;2023-06-10T15:06:58;3.33;;;3.03;;